Jurien, Australia
Current Conditions -  °F | °C
As of 4:30 AM on Friday 30 Jan 2015 (Local Time) from YGEL Reporting Station
Overcast Overcast  
Wind Chill: 72°   Ceiling: 600
Heat Index: 72°   Visibility: 3mi
Dew Point: 70°   Wind: 7mph
Humidity: 94%   Direction: 160°SSE
Pressure: 29.77"   Gusts: NA
Location:  30.31°S, 115.03°E
Report Text: YGEL 292030Z AUTO 16006KT 5000 // OVC006 22/21 Q1008
Loading
Personal Weather Stations






























Interactive Weather Map New forecast layout! Learn more

10-Day Weather Forecast

Advertisements
Track Severe Weather on mobile